createdAt,value
2018-08-23T00:00:57.428Z,0
2018-08-23T00:01:58.147Z,0
2018-08-23T00:02:58.888Z,0
2018-08-23T00:03:59.586Z,0
2018-08-23T00:05:00.319Z,0
2018-08-23T00:06:01.038Z,0
2018-08-23T00:07:01.769Z,0
2018-08-23T00:08:02.519Z,0
2018-08-23T00:09:03.228Z,0
2018-08-23T00:10:03.955Z,0
2018-08-23T00:11:04.669Z,0
2018-08-23T00:12:05.385Z,0
2018-08-23T00:13:06.101Z,0
2018-08-23T00:14:06.821Z,0
2018-08-23T00:15:07.537Z,0
2018-08-23T00:16:08.259Z,0
2018-08-23T00:17:08.975Z,0
2018-08-23T00:18:09.692Z,0
2018-08-23T00:19:10.419Z,0
2018-08-23T00:20:11.138Z,0
2018-08-23T00:21:11.854Z,0
2018-08-23T00:22:12.583Z,0
2018-08-23T00:23:13.298Z,0
2018-08-23T00:24:14.014Z,0
2018-08-23T00:25:14.730Z,0
2018-08-23T00:26:15.457Z,0
2018-08-23T00:27:16.190Z,0
2018-08-23T00:28:16.898Z,0
2018-08-23T00:29:17.616Z,0
2018-08-23T00:30:18.330Z,0
2018-08-23T00:31:19.045Z,0
2018-08-23T00:32:19.763Z,0
2018-08-23T00:33:20.475Z,0
2018-08-23T00:34:21.190Z,0
2018-08-23T00:35:21.905Z,0
2018-08-23T00:36:22.620Z,0
2018-08-23T00:37:23.338Z,0
2018-08-23T00:38:24.049Z,0
2018-08-23T00:39:24.767Z,0
2018-08-23T00:40:25.496Z,0
2018-08-23T00:41:26.212Z,0
2018-08-23T00:42:26.928Z,0
2018-08-23T00:43:27.647Z,0
2018-08-23T00:44:28.362Z,0
2018-08-23T00:45:29.076Z,0
2018-08-23T00:46:29.791Z,0
2018-08-23T00:47:30.519Z,0
2018-08-23T00:48:31.248Z,0
2018-08-23T00:49:31.994Z,0
2018-08-23T00:50:32.681Z,0
2018-08-23T00:51:33.403Z,0
2018-08-23T00:52:34.118Z,0
2018-08-23T00:53:34.842Z,0
2018-08-23T00:54:35.556Z,0
2018-08-23T00:55:36.283Z,0
2018-08-23T00:56:36.997Z,0
2018-08-23T00:57:37.711Z,0
2018-08-23T00:58:38.441Z,0
2018-08-23T00:59:39.169Z,0
2018-08-23T01:00:39.895Z,0
2018-08-23T01:01:40.612Z,0
2018-08-23T01:02:41.328Z,0
2018-08-23T01:03:42.057Z,0
2018-08-23T01:04:42.775Z,0
2018-08-23T01:05:43.503Z,0
2018-08-23T01:06:44.216Z,0
2018-08-23T01:07:44.934Z,0
2018-08-23T01:08:45.659Z,0
2018-08-23T01:09:46.374Z,0
2018-08-23T01:10:47.102Z,0
2018-08-23T01:11:47.820Z,0
2018-08-23T01:12:48.536Z,0
2018-08-23T01:13:49.254Z,0
2018-08-23T01:14:49.968Z,0
2018-08-23T01:15:50.695Z,0
2018-08-23T01:16:51.413Z,0
2018-08-23T01:17:52.126Z,0
2018-08-23T01:18:52.842Z,0
2018-08-23T01:19:53.570Z,0
2018-08-23T01:20:54.298Z,0
2018-08-23T01:21:55.014Z,0
2018-08-23T01:22:55.742Z,0
2018-08-23T01:23:56.458Z,0
2018-08-23T01:24:57.174Z,0
2018-08-23T01:25:57.889Z,0
2018-08-23T01:26:58.604Z,0
2018-08-23T01:27:59.333Z,0
2018-08-23T01:29:00.049Z,0
2018-08-23T01:30:00.777Z,0
2018-08-23T01:31:01.493Z,0
2018-08-23T01:32:02.206Z,0
2018-08-23T01:33:02.925Z,0
2018-08-23T01:34:03.635Z,0
2018-08-23T01:35:04.350Z,0
2018-08-23T01:36:05.062Z,0
2018-08-23T01:37:05.781Z,0
2018-08-23T01:38:06.491Z,0
2018-08-23T01:39:07.207Z,0
2018-08-23T01:40:07.932Z,0
2018-08-23T01:41:08.649Z,0
2018-08-23T01:42:09.363Z,0
2018-08-23T01:43:10.078Z,0
2018-08-23T01:44:10.790Z,0
2018-08-23T01:45:11.506Z,0
2018-08-23T01:46:12.219Z,0
2018-08-23T01:47:12.934Z,0
2018-08-23T01:48:13.651Z,0
2018-08-23T01:49:14.363Z,0
2018-08-23T01:50:15.077Z,0
2018-08-23T01:51:15.791Z,0
2018-08-23T01:52:16.505Z,0
2018-08-23T01:53:17.220Z,0
2018-08-23T01:54:17.935Z,0
2018-08-23T01:55:18.650Z,0
2018-08-23T01:56:19.378Z,0
2018-08-23T01:57:20.097Z,0
2018-08-23T01:58:20.810Z,0
2018-08-23T01:59:21.526Z,0
2018-08-23T02:00:22.241Z,0
2018-08-23T02:01:22.957Z,0
2018-08-23T02:02:23.678Z,0
2018-08-23T02:03:24.399Z,0
2018-08-23T02:04:25.116Z,0
2018-08-23T02:05:25.832Z,0
2018-08-23T02:06:26.548Z,0
2018-08-23T02:07:27.277Z,0
2018-08-23T02:08:28.005Z,0
2018-08-23T02:09:28.720Z,0
2018-08-23T02:10:29.451Z,0
2018-08-23T02:11:30.176Z,0
2018-08-23T02:12:30.891Z,0
2018-08-23T02:13:31.606Z,0
2018-08-23T02:14:32.321Z,0
2018-08-23T02:15:33.048Z,0
2018-08-23T02:16:33.762Z,0
2018-08-23T02:17:34.475Z,0
2018-08-23T02:18:35.202Z,0
2018-08-23T02:19:35.916Z,0
2018-08-23T02:20:36.632Z,0
2018-08-23T02:21:37.351Z,0
2018-08-23T02:22:38.090Z,0
2018-08-23T02:23:38.792Z,0
2018-08-23T02:24:39.507Z,0
2018-08-23T02:25:40.223Z,0
2018-08-23T02:26:40.938Z,0
2018-08-23T02:27:41.666Z,0
2018-08-23T02:28:42.380Z,0
2018-08-23T02:29:43.094Z,0
2018-08-23T02:30:43.809Z,0
2018-08-23T02:31:44.537Z,0
2018-08-23T02:32:45.251Z,0
2018-08-23T02:33:45.970Z,0
2018-08-23T02:34:46.683Z,0
2018-08-23T02:35:47.398Z,0
2018-08-23T02:36:48.128Z,0
2018-08-23T02:37:48.839Z,0
2018-08-23T02:38:49.560Z,0
2018-08-23T02:39:50.282Z,0
2018-08-23T02:40:50.998Z,0
2018-08-23T02:41:51.713Z,0
2018-08-23T02:42:52.449Z,0
2018-08-23T02:43:53.157Z,0
2018-08-23T02:44:53.873Z,0
2018-08-23T02:45:54.591Z,0
2018-08-23T02:46:55.316Z,0
2018-08-23T02:47:56.044Z,0
2018-08-23T02:48:56.758Z,0
2018-08-23T02:49:57.471Z,0
2018-08-23T02:50:58.186Z,0
2018-08-23T02:51:58.901Z,0
2018-08-23T02:52:59.629Z,0
2018-08-23T02:54:00.397Z,0
2018-08-23T02:55:01.071Z,0
2018-08-23T02:56:01.787Z,0
2018-08-23T02:57:02.507Z,0
2018-08-23T02:58:03.218Z,0
2018-08-23T02:59:03.934Z,0
2018-08-23T03:00:04.648Z,0
2018-08-23T03:01:05.363Z,0
2018-08-23T03:02:06.077Z,0
2018-08-23T03:03:06.805Z,0
2018-08-23T03:04:07.523Z,0
2018-08-23T03:05:08.240Z,0
2018-08-23T03:06:08.957Z,0
2018-08-23T03:07:09.686Z,0
2018-08-23T03:08:10.400Z,0
2018-08-23T03:09:11.117Z,0
2018-08-23T03:10:11.832Z,0
2018-08-23T03:11:12.545Z,0
2018-08-23T03:12:13.276Z,0
2018-08-23T03:13:13.990Z,0
2018-08-23T03:14:14.781Z,0
2018-08-23T03:15:15.428Z,0
2018-08-23T03:16:16.141Z,0
2018-08-23T03:17:16.858Z,0
2018-08-23T03:18:17.572Z,0
2018-08-23T03:19:18.285Z,0
2018-08-23T03:20:19.013Z,0
2018-08-23T03:21:19.741Z,0
2018-08-23T03:22:20.456Z,0
2018-08-23T03:23:21.173Z,0
2018-08-23T03:24:21.900Z,0
2018-08-23T03:25:22.614Z,0
2018-08-23T03:26:23.330Z,0
2018-08-23T03:27:24.044Z,0
2018-08-23T03:28:24.760Z,0
2018-08-23T03:29:25.475Z,0
2018-08-23T03:30:26.197Z,0
2018-08-23T03:31:26.916Z,0
2018-08-23T03:32:27.649Z,0
2018-08-23T03:33:28.370Z,0
2018-08-23T03:34:29.086Z,0
2018-08-23T03:35:29.813Z,0
2018-08-23T03:36:30.541Z,0
2018-08-23T03:37:31.261Z,0
2018-08-23T03:38:31.980Z,0
2018-08-23T03:39:32.707Z,0
2018-08-23T03:40:33.430Z,0
2018-08-23T03:41:34.135Z,0
2018-08-23T03:42:34.851Z,0
2018-08-23T03:43:35.577Z,0
2018-08-23T03:44:36.293Z,0
2018-08-23T03:45:37.009Z,0
2018-08-23T03:46:37.733Z,0
2018-08-23T03:47:38.493Z,0
2018-08-23T03:48:39.166Z,0
2018-08-23T03:49:39.879Z,0
2018-08-23T03:50:40.594Z,0
2018-08-23T03:51:41.308Z,0
2018-08-23T03:52:42.044Z,0
2018-08-23T03:53:42.764Z,0
2018-08-23T03:54:43.478Z,0
2018-08-23T03:55:44.193Z,0
2018-08-23T03:56:44.906Z,0
2018-08-23T03:57:45.620Z,0
2018-08-23T03:58:46.335Z,0
2018-08-23T03:59:47.051Z,0
2018-08-23T04:00:47.763Z,0
2018-08-23T04:01:48.477Z,0
2018-08-23T04:02:49.192Z,0
2018-08-23T04:03:49.908Z,0
2018-08-23T04:04:50.621Z,0
2018-08-23T04:05:51.335Z,0
2018-08-23T04:06:52.052Z,0
2018-08-23T04:07:52.772Z,0
2018-08-23T04:08:53.499Z,0
2018-08-23T04:09:54.216Z,0
2018-08-23T04:10:54.933Z,0
2018-08-23T04:11:55.660Z,0
2018-08-23T04:12:56.376Z,0
2018-08-23T04:13:57.093Z,0
2018-08-23T04:14:57.809Z,0
2018-08-23T04:15:58.536Z,0
2018-08-23T04:16:59.252Z,0
2018-08-23T04:17:59.970Z,0
2018-08-23T04:19:00.698Z,0
2018-08-23T04:20:01.413Z,0
2018-08-23T04:21:02.141Z,0
2018-08-23T04:22:02.856Z,0
2018-08-23T04:23:03.573Z,0
2018-08-23T04:24:04.290Z,0
2018-08-23T04:25:05.021Z,0
2018-08-23T04:26:05.735Z,0
2018-08-23T04:27:06.454Z,0
2018-08-23T04:28:07.169Z,5
2018-08-23T04:29:07.885Z,5
2018-08-23T04:30:08.602Z,5
2018-08-23T04:31:09.333Z,5
2018-08-23T04:32:10.051Z,5
2018-08-23T04:33:10.780Z,5
2018-08-23T04:34:11.500Z,5
2018-08-23T04:35:12.236Z,5
2018-08-23T04:36:12.943Z,5
2018-08-23T04:37:13.657Z,5
2018-08-23T04:38:14.373Z,5
2018-08-23T04:39:15.090Z,10
2018-08-23T04:40:15.822Z,10
2018-08-23T04:41:16.537Z,10
2018-08-23T04:42:17.257Z,10
2018-08-23T04:43:18.027Z,10
2018-08-23T04:44:18.694Z,10
2018-08-23T04:45:19.409Z,10
2018-08-23T04:46:20.126Z,10
2018-08-23T04:47:20.843Z,10
2018-08-23T04:48:21.579Z,15
2018-08-23T04:49:22.295Z,15
2018-08-23T04:50:23.011Z,15
2018-08-23T04:51:23.731Z,15
2018-08-23T04:52:24.449Z,15
2018-08-23T04:53:25.165Z,15
2018-08-23T04:54:25.881Z,20
2018-08-23T04:55:26.599Z,20
2018-08-23T04:56:27.317Z,20
2018-08-23T04:57:28.034Z,20
2018-08-23T04:58:28.771Z,20
2018-08-23T04:59:29.468Z,20
2018-08-23T05:00:30.200Z,25
2018-08-23T05:01:30.918Z,25
2018-08-23T05:02:31.636Z,25
2018-08-23T05:03:32.358Z,25
2018-08-23T05:04:33.088Z,30
2018-08-23T05:05:33.807Z,30
2018-08-23T05:06:34.526Z,30
2018-08-23T05:07:35.248Z,35
2018-08-23T05:08:35.963Z,35
2018-08-23T05:09:36.682Z,35
2018-08-23T05:10:37.400Z,40
2018-08-23T05:11:38.120Z,40
2018-08-23T05:12:38.839Z,40
2018-08-23T05:13:39.570Z,45
2018-08-23T05:14:40.290Z,45
2018-08-23T05:15:41.009Z,45
2018-08-23T05:16:41.727Z,50
2018-08-23T05:17:42.445Z,50
2018-08-23T05:18:43.166Z,50
2018-08-23T05:19:43.885Z,55
2018-08-23T05:20:44.603Z,55
2018-08-23T05:21:45.327Z,55
2018-08-23T05:22:46.056Z,55
2018-08-23T05:23:46.777Z,55
2018-08-23T05:24:47.516Z,55
2018-08-23T05:25:48.242Z,60
2018-08-23T05:26:48.976Z,60
2018-08-23T05:27:49.695Z,65
2018-08-23T05:28:50.413Z,65
2018-08-23T05:29:51.173Z,65
2018-08-23T05:30:51.855Z,65
2018-08-23T05:31:52.575Z,70
2018-08-23T05:32:53.308Z,70
2018-08-23T05:33:54.026Z,70
2018-08-23T05:34:54.745Z,70
2018-08-23T05:35:55.464Z,75
2018-08-23T05:36:56.184Z,75
2018-08-23T05:37:56.903Z,80
2018-08-23T05:38:57.625Z,80
2018-08-23T05:39:58.352Z,80
2018-08-23T05:40:59.073Z,85
2018-08-23T05:41:59.802Z,85
2018-08-23T05:43:00.533Z,85
2018-08-23T05:44:01.253Z,85
2018-08-23T05:45:01.986Z,90
2018-08-23T05:46:02.704Z,90
2018-08-23T05:47:03.424Z,95
2018-08-23T05:48:04.144Z,95
2018-08-23T05:49:04.863Z,95
2018-08-23T05:50:05.582Z,95
2018-08-23T05:51:06.305Z,100
2018-08-23T05:52:07.026Z,100
2018-08-23T05:53:07.746Z,100
2018-08-23T05:54:08.465Z,105
2018-08-23T05:55:09.187Z,105
2018-08-23T05:56:09.922Z,105
2018-08-23T05:57:10.652Z,110
2018-08-23T05:58:11.384Z,110
2018-08-23T05:59:12.104Z,110
2018-08-23T06:00:12.837Z,110
2018-08-23T06:01:13.558Z,110
2018-08-23T06:02:14.279Z,115
2018-08-23T06:03:15.001Z,120
2018-08-23T06:04:15.722Z,125
2018-08-23T06:05:16.447Z,125
2018-08-23T06:06:17.164Z,130
2018-08-23T06:07:17.897Z,130
2018-08-23T06:08:18.644Z,135
2018-08-23T06:09:19.340Z,135
2018-08-23T06:10:20.060Z,140
2018-08-23T06:11:20.780Z,140
2018-08-23T06:12:21.529Z,140
2018-08-23T06:13:22.268Z,140
2018-08-23T06:14:22.991Z,145
2018-08-23T06:15:23.712Z,145
2018-08-23T06:16:24.433Z,150
2018-08-23T06:17:25.155Z,150
2018-08-23T06:18:25.878Z,155
2018-08-23T06:19:26.609Z,160
2018-08-23T06:20:27.332Z,165
2018-08-23T06:21:28.052Z,165
2018-08-23T06:22:28.787Z,170
2018-08-23T06:23:29.511Z,170
2018-08-23T06:24:30.233Z,165
2018-08-23T06:25:30.982Z,160
2018-08-23T06:26:31.679Z,150
2018-08-23T06:27:32.420Z,145
2018-08-23T06:28:33.123Z,135
2018-08-23T06:29:33.856Z,135
2018-08-23T06:30:34.576Z,140
2018-08-23T06:31:35.298Z,145
2018-08-23T06:32:36.020Z,150
2018-08-23T06:33:36.840Z,165
2018-08-23T06:34:37.473Z,165
2018-08-23T06:35:38.259Z,185
2018-08-23T06:36:38.917Z,205
2018-08-23T06:37:39.640Z,210
2018-08-23T06:38:40.387Z,205
2018-08-23T06:39:41.093Z,205
2018-08-23T06:40:41.819Z,205
2018-08-23T06:41:42.542Z,215
2018-08-23T06:42:43.257Z,225
2018-08-23T06:43:43.978Z,235
2018-08-23T06:44:44.704Z,245
2018-08-23T06:45:45.439Z,260
2018-08-23T06:46:46.160Z,275
2018-08-23T06:47:46.898Z,275
2018-08-23T06:48:47.624Z,285
2018-08-23T06:49:48.360Z,305
2018-08-23T06:50:49.077Z,315
2018-08-23T06:51:49.812Z,325
2018-08-23T06:52:50.536Z,340
2018-08-23T06:53:51.261Z,340
2018-08-23T06:54:51.985Z,345
2018-08-23T06:55:52.722Z,350
2018-08-23T06:56:53.436Z,360
2018-08-23T06:57:54.174Z,360
2018-08-23T06:58:54.936Z,375
2018-08-23T06:59:55.641Z,390
2018-08-23T07:00:56.368Z,390
2018-08-23T07:01:57.094Z,410
2018-08-23T07:02:57.816Z,415
2018-08-23T07:03:58.556Z,435
2018-08-23T07:04:59.295Z,445
2018-08-23T07:06:00.032Z,460
2018-08-23T07:07:00.794Z,460
2018-08-23T07:08:01.488Z,465
2018-08-23T07:09:02.225Z,480
2018-08-23T07:10:02.954Z,485
2018-08-23T07:11:03.679Z,490
2018-08-23T07:12:04.409Z,500
2018-08-23T07:13:05.151Z,520
2018-08-23T07:14:05.881Z,530
2018-08-23T07:15:06.614Z,535
2018-08-23T07:16:07.356Z,540
2018-08-23T07:17:08.149Z,565
2018-08-23T07:18:08.820Z,575
2018-08-23T07:19:09.548Z,585
2018-08-23T07:20:10.291Z,600
2018-08-23T07:21:11.022Z,590
2018-08-23T07:22:11.752Z,610
2018-08-23T07:23:12.483Z,615
2018-08-23T07:24:13.256Z,620
2018-08-23T07:25:13.975Z,615
2018-08-23T07:26:14.733Z,610
2018-08-23T07:27:15.459Z,620
2018-08-23T07:28:16.193Z,645
2018-08-23T07:29:16.951Z,640
2018-08-23T07:30:17.771Z,635
2018-08-23T07:31:18.416Z,640
2018-08-23T07:32:19.165Z,660
2018-08-23T07:33:19.905Z,690
2018-08-23T07:34:20.656Z,675
2018-08-23T07:35:21.392Z,675
2018-08-23T07:36:22.120Z,705
2018-08-23T07:37:22.853Z,735
2018-08-23T07:38:23.582Z,745
2018-08-23T07:39:24.313Z,745
2018-08-23T07:40:25.043Z,730
2018-08-23T07:41:25.773Z,735
2018-08-23T07:42:26.536Z,750
2018-08-23T07:43:27.246Z,750
2018-08-23T07:44:27.977Z,780
2018-08-23T07:45:28.707Z,740
2018-08-23T07:46:29.437Z,775
2018-08-23T07:47:30.168Z,750
2018-08-23T07:48:30.920Z,800
2018-08-23T07:49:31.654Z,815
2018-08-23T07:50:32.384Z,775
2018-08-23T07:51:33.119Z,830
2018-08-23T07:52:33.903Z,805
2018-08-23T07:53:34.594Z,840
2018-08-23T07:54:35.320Z,830
2018-08-23T07:55:36.052Z,855
2018-08-23T07:56:36.781Z,860
2018-08-23T07:57:37.512Z,865
2018-08-23T07:58:38.246Z,855
2018-08-23T07:59:38.976Z,895
2018-08-23T08:00:39.707Z,885
2018-08-23T08:01:40.438Z,830
2018-08-23T08:02:41.169Z,865
2018-08-23T08:03:41.914Z,900
2018-08-23T08:04:42.657Z,915
2018-08-23T08:05:43.389Z,900
2018-08-23T08:06:44.137Z,925
2018-08-23T08:07:44.879Z,910
2018-08-23T08:08:45.613Z,915
2018-08-23T08:09:46.345Z,880
2018-08-23T08:10:47.077Z,960
2018-08-23T08:11:47.822Z,900
2018-08-23T08:12:48.567Z,945
2018-08-23T08:13:49.299Z,985
2018-08-23T08:14:50.115Z,1005
2018-08-23T08:15:50.768Z,1065
2018-08-23T08:16:51.501Z,1075
2018-08-23T08:17:52.234Z,975
2018-08-23T08:18:52.967Z,1005
2018-08-23T08:19:53.700Z,1015
2018-08-23T08:20:54.497Z,965
2018-08-23T08:21:55.169Z,1035
2018-08-23T08:22:55.913Z,1080
2018-08-23T08:23:56.637Z,1090
2018-08-23T08:24:57.385Z,1065
2018-08-23T08:25:58.118Z,1055
2018-08-23T08:26:58.852Z,695
2018-08-23T08:27:59.588Z,360
2018-08-23T08:29:00.333Z,1110
2018-08-23T08:30:01.078Z,415
2018-08-23T08:31:01.826Z,1145
2018-08-23T08:32:02.558Z,1025
2018-08-23T08:33:03.305Z,370
2018-08-23T08:34:04.024Z,1105
2018-08-23T08:35:04.762Z,905
2018-08-23T08:36:05.495Z,635
2018-08-23T08:37:06.225Z,1095
2018-08-23T08:38:06.957Z,1045
2018-08-23T08:39:07.691Z,1255
2018-08-23T08:40:08.426Z,1235
2018-08-23T08:41:09.160Z,740
2018-08-23T08:42:09.894Z,1105
2018-08-23T08:43:10.626Z,720
2018-08-23T08:44:11.361Z,1225
2018-08-23T08:45:12.111Z,1230
2018-08-23T08:46:12.855Z,1325
2018-08-23T08:47:13.589Z,735
2018-08-23T08:48:14.323Z,525
2018-08-23T08:49:15.054Z,1385
2018-08-23T08:50:15.799Z,1240
2018-08-23T08:51:16.541Z,1175
2018-08-23T08:52:17.270Z,1270
2018-08-23T08:53:18.004Z,1125
2018-08-23T08:54:18.738Z,1305
2018-08-23T08:55:19.473Z,1200
2018-08-23T08:56:20.207Z,1375
2018-08-23T08:57:21.036Z,1375
2018-08-23T08:58:21.683Z,1255
2018-08-23T08:59:22.418Z,1350
2018-08-23T09:00:23.152Z,1375
2018-08-23T09:01:23.884Z,895
2018-08-23T09:02:24.619Z,1025
2018-08-23T09:03:25.353Z,1315
2018-08-23T09:04:26.089Z,1335
2018-08-23T09:05:26.823Z,1360
2018-08-23T09:06:27.558Z,1370
2018-08-23T09:07:28.306Z,1295
2018-08-23T09:08:29.043Z,1290
2018-08-23T09:09:29.777Z,1325
2018-08-23T09:10:30.513Z,1275
2018-08-23T09:11:31.253Z,1165
2018-08-23T09:12:32.001Z,1310
2018-08-23T09:13:32.737Z,1385
2018-08-23T09:14:33.486Z,1295
2018-08-23T09:15:34.221Z,1380
2018-08-23T09:16:34.960Z,450
2018-08-23T09:17:35.700Z,1585
2018-08-23T09:18:36.486Z,1345
2018-08-23T09:19:37.184Z,1385
2018-08-23T09:20:38.029Z,1485
2018-08-23T09:21:38.665Z,1355
2018-08-23T09:22:39.406Z,1410
2018-08-23T09:23:40.146Z,780
2018-08-23T09:24:40.899Z,680
2018-08-23T09:25:41.635Z,1160
2018-08-23T09:26:42.372Z,430
2018-08-23T09:27:43.114Z,1540
2018-08-23T09:28:43.855Z,1515
2018-08-23T09:29:44.591Z,860
2018-08-23T09:30:45.333Z,1490
2018-08-23T09:31:46.073Z,1455
2018-08-23T09:32:46.818Z,1495
2018-08-23T09:33:47.569Z,1525
2018-08-23T09:34:48.310Z,1375
2018-08-23T09:35:49.051Z,1310
2018-08-23T09:36:49.804Z,1500
2018-08-23T09:37:50.596Z,1410
2018-08-23T09:38:51.304Z,570
2018-08-23T09:39:52.048Z,1250
2018-08-23T09:40:52.794Z,1585
2018-08-23T09:41:53.553Z,1505
2018-08-23T09:42:54.348Z,765
2018-08-23T09:43:55.040Z,910
2018-08-23T09:44:55.784Z,1505
2018-08-23T09:45:56.528Z,1610
2018-08-23T09:46:57.282Z,570
2018-08-23T09:47:58.036Z,1595
2018-08-23T09:48:58.777Z,1255
2018-08-23T09:49:59.579Z,1035
2018-08-23T09:51:00.290Z,1470
2018-08-23T09:52:01.013Z,1455
2018-08-23T09:53:01.755Z,440
2018-08-23T09:54:02.491Z,815
2018-08-23T09:55:03.237Z,480
2018-08-23T09:56:03.974Z,1290
2018-08-23T09:57:04.708Z,360
2018-08-23T09:58:05.436Z,360
2018-08-23T09:59:06.179Z,440
2018-08-23T10:00:06.909Z,1040
2018-08-23T10:01:07.654Z,565
2018-08-23T10:02:08.387Z,1495
2018-08-23T10:03:09.134Z,670
2018-08-23T10:04:09.872Z,535
2018-08-23T10:05:10.612Z,1455
2018-08-23T10:06:11.345Z,1335
2018-08-23T10:07:12.080Z,1045
2018-08-23T10:08:12.812Z,1430
2018-08-23T10:09:13.557Z,560
2018-08-23T10:10:14.290Z,575
2018-08-23T10:11:15.072Z,1325
2018-08-23T10:12:15.758Z,1620
2018-08-23T10:13:16.502Z,1620
2018-08-23T10:14:17.236Z,1275
2018-08-23T10:15:17.969Z,1600
2018-08-23T10:16:18.704Z,735
2018-08-23T10:17:19.450Z,560
2018-08-23T10:18:20.182Z,630
2018-08-23T10:19:20.926Z,1500
2018-08-23T10:20:21.657Z,890
2018-08-23T10:21:22.408Z,1210
2018-08-23T10:22:23.135Z,830
2018-08-23T10:23:23.868Z,1160
2018-08-23T10:24:24.616Z,1575
2018-08-23T10:25:25.351Z,1690
2018-08-23T10:26:26.091Z,1410
2018-08-23T10:27:26.831Z,1605
2018-08-23T10:28:27.580Z,1590
2018-08-23T10:29:28.315Z,1285
2018-08-23T10:30:29.062Z,625
2018-08-23T10:31:29.795Z,540
2018-08-23T10:32:30.532Z,635
2018-08-23T10:33:31.279Z,525
2018-08-23T10:34:32.013Z,550
2018-08-23T10:35:32.759Z,1595
2018-08-23T10:36:33.504Z,670
2018-08-23T10:37:34.237Z,875
2018-08-23T10:38:34.975Z,1305
2018-08-23T10:39:35.716Z,570
2018-08-23T10:40:36.466Z,1590
2018-08-23T10:41:37.199Z,1605
2018-08-23T10:42:37.936Z,1700
2018-08-23T10:43:38.670Z,1630
2018-08-23T10:44:39.490Z,990
2018-08-23T10:45:40.151Z,1700
2018-08-23T10:46:40.895Z,1640
2018-08-23T10:47:41.641Z,1530
2018-08-23T10:48:42.383Z,765
2018-08-23T10:49:43.141Z,1455
2018-08-23T10:50:43.911Z,1290
2018-08-23T10:51:44.624Z,1690
2018-08-23T10:52:45.365Z,865
2018-08-23T10:53:46.109Z,1350
2018-08-23T10:54:46.854Z,1110
2018-08-23T10:55:47.604Z,720
2018-08-23T10:56:48.363Z,1705
2018-08-23T10:57:49.108Z,1775
2018-08-23T10:58:49.845Z,1750
2018-08-23T10:59:50.587Z,1800
2018-08-23T11:00:51.332Z,1680
2018-08-23T11:01:52.087Z,1740
2018-08-23T11:02:52.829Z,1680
2018-08-23T11:03:53.584Z,1735
2018-08-23T11:04:54.325Z,1770
2018-08-23T11:05:55.066Z,1670
2018-08-23T11:06:55.823Z,1680
2018-08-23T11:07:56.565Z,1750
2018-08-23T11:08:57.306Z,840
2018-08-23T11:09:58.046Z,590
2018-08-23T11:10:58.809Z,1525
2018-08-23T11:11:59.544Z,1305
2018-08-23T11:13:00.281Z,1795
2018-08-23T11:14:01.025Z,1760
2018-08-23T11:15:01.767Z,1650
2018-08-23T11:16:02.524Z,1745
2018-08-23T11:17:03.407Z,1765
2018-08-23T11:18:04.027Z,1755
2018-08-23T11:19:04.768Z,1530
2018-08-23T11:20:05.511Z,815
2018-08-23T11:21:06.251Z,1490
2018-08-23T11:22:06.994Z,1710
2018-08-23T11:23:07.742Z,755
2018-08-23T11:24:08.473Z,630
2018-08-23T11:25:09.215Z,520
2018-08-23T11:26:09.967Z,1520
2018-08-23T11:27:10.704Z,725
2018-08-23T11:28:11.444Z,855
2018-08-23T11:29:12.183Z,560
2018-08-23T11:30:12.925Z,530
2018-08-23T11:31:13.665Z,535
2018-08-23T11:32:14.408Z,660
2018-08-23T11:34:30.763Z,1210
2018-08-23T11:35:31.506Z,725
2018-08-23T11:36:32.262Z,725
2018-08-23T11:37:33.006Z,1750
2018-08-23T11:38:33.750Z,1790
2018-08-23T11:39:34.492Z,1675
2018-08-23T11:40:35.241Z,1585
2018-08-23T11:41:35.992Z,885
2018-08-23T11:42:36.737Z,415
2018-08-23T11:43:37.488Z,455
2018-08-23T11:44:38.247Z,1330
2018-08-23T11:45:39.005Z,1495
2018-08-23T11:46:39.744Z,730
2018-08-23T11:47:40.488Z,540
2018-08-23T11:48:41.296Z,435
2018-08-23T11:49:41.972Z,515
2018-08-23T11:50:42.729Z,530
2018-08-23T11:51:43.466Z,495
2018-08-23T11:52:44.203Z,450
2018-08-23T11:53:45.105Z,390
2018-08-23T11:54:45.669Z,390
2018-08-23T11:55:46.404Z,990
2018-08-23T11:56:47.139Z,760
2018-08-23T11:57:47.871Z,1625
2018-08-23T11:58:48.615Z,550
2018-08-23T11:59:49.347Z,450
2018-08-23T12:00:50.079Z,485
2018-08-23T12:01:50.808Z,570
2018-08-23T12:02:51.554Z,1640
2018-08-23T12:04:44.950Z,1560
2018-08-23T12:05:45.699Z,1555
2018-08-23T12:06:46.433Z,1670
2018-08-23T12:07:47.194Z,1615
2018-08-23T12:08:47.910Z,1220
2018-08-23T12:09:48.676Z,530
2018-08-23T12:10:49.401Z,495
2018-08-23T12:11:50.145Z,520
2018-08-23T12:12:50.878Z,790
2018-08-23T12:13:51.609Z,885
2018-08-23T12:14:52.343Z,625
2018-08-23T12:15:53.079Z,510
2018-08-23T12:16:53.856Z,510
2018-08-23T12:17:54.540Z,435
2018-08-23T12:18:55.274Z,400
2018-08-23T12:19:56.004Z,370
2018-08-23T12:20:56.734Z,415
2018-08-23T12:21:57.465Z,575
2018-08-23T12:22:58.212Z,525
2018-08-23T12:23:58.942Z,1300
2018-08-23T12:24:59.674Z,1435
2018-08-23T12:26:00.523Z,1420
2018-08-23T12:27:01.158Z,725
2018-08-23T12:28:01.903Z,1405
2018-08-23T12:29:02.637Z,1520
2018-08-23T12:30:03.369Z,750
2018-08-23T12:31:04.110Z,1490
2018-08-23T12:32:04.861Z,1445
2018-08-23T12:33:05.567Z,775
2018-08-23T12:34:06.313Z,640
2018-08-23T12:35:07.058Z,525
2018-08-23T12:36:07.792Z,490
2018-08-23T12:37:08.530Z,435
2018-08-23T12:38:09.275Z,450
2018-08-23T12:39:10.003Z,720
2018-08-23T12:40:10.736Z,660
2018-08-23T12:41:11.466Z,590
2018-08-23T12:42:12.305Z,605
2018-08-23T12:43:12.944Z,1100
2018-08-23T12:44:13.675Z,1400
2018-08-23T12:45:14.407Z,1415
2018-08-23T12:46:15.159Z,1310
2018-08-23T12:47:15.885Z,1445
2018-08-23T12:48:16.622Z,1390
2018-08-23T12:49:17.369Z,1435
2018-08-23T12:50:18.110Z,765
2018-08-23T12:51:18.862Z,1350
2018-08-23T12:52:19.601Z,1535
2018-08-23T12:53:20.377Z,1230
2018-08-23T12:54:21.083Z,530
2018-08-23T12:55:21.823Z,535
2018-08-23T12:56:22.584Z,600
2018-08-23T12:57:23.304Z,1145
2018-08-23T12:58:24.040Z,1445
2018-08-23T12:59:24.773Z,1400
2018-08-23T13:00:25.519Z,1385
2018-08-23T13:01:26.301Z,1420
2018-08-23T13:02:27.062Z,1475
2018-08-23T13:03:27.770Z,1410
2018-08-23T13:04:28.478Z,1000
2018-08-23T13:05:29.220Z,1380
2018-08-23T13:06:29.965Z,1445
2018-08-23T13:07:30.705Z,1455
2018-08-23T13:08:31.490Z,1440
2018-08-23T13:09:32.219Z,1455
2018-08-23T13:10:32.956Z,540
2018-08-23T13:11:33.695Z,835
2018-08-23T13:12:34.453Z,1405
2018-08-23T13:13:35.197Z,540
2018-08-23T13:14:35.935Z,905
2018-08-23T13:15:36.679Z,1395
2018-08-23T13:16:37.419Z,1410
2018-08-23T13:17:38.206Z,1455
2018-08-23T13:18:38.928Z,1410
2018-08-23T13:19:39.650Z,1300
2018-08-23T13:20:40.396Z,1340
2018-08-23T13:21:41.138Z,1325
2018-08-23T13:22:41.881Z,1310
2018-08-23T13:23:42.638Z,1340
2018-08-23T13:24:43.395Z,1395
2018-08-23T13:25:44.152Z,1395
2018-08-23T13:26:44.897Z,1470
2018-08-23T13:27:45.706Z,1525
2018-08-23T13:28:46.399Z,1465
2018-08-23T13:29:47.148Z,1315
2018-08-23T13:30:47.890Z,1315
2018-08-23T13:31:48.638Z,1315
2018-08-23T13:32:49.382Z,1350
2018-08-23T13:33:50.125Z,1370
2018-08-23T13:34:50.865Z,1250
2018-08-23T13:35:51.610Z,1335
2018-08-23T13:36:52.450Z,1330
2018-08-23T13:37:53.100Z,1325
2018-08-23T13:38:53.845Z,1265
2018-08-23T13:39:54.586Z,1300
2018-08-23T13:40:55.325Z,1360
2018-08-23T13:41:56.118Z,1355
2018-08-23T13:42:56.823Z,1350
2018-08-23T13:43:57.574Z,1285
2018-08-23T13:44:58.359Z,1275
2018-08-23T13:45:59.055Z,1350
2018-08-23T13:46:59.801Z,1340
2018-08-23T13:48:00.544Z,1335
2018-08-23T13:49:01.290Z,1315
2018-08-23T13:50:02.037Z,1400
2018-08-23T13:51:02.776Z,1305
2018-08-23T13:52:03.521Z,1365
2018-08-23T13:53:04.273Z,1380
2018-08-23T13:54:05.009Z,1285
2018-08-23T13:55:05.755Z,1320
2018-08-23T13:56:06.515Z,1310
2018-08-23T13:57:07.252Z,1315
2018-08-23T13:58:08.039Z,1320
2018-08-23T13:59:08.767Z,1320
2018-08-23T14:00:09.501Z,1315
2018-08-23T14:01:10.258Z,1320
2018-08-23T14:02:11.039Z,1300
2018-08-23T14:03:11.746Z,1290
2018-08-23T14:04:12.489Z,1285
2018-08-23T14:05:13.236Z,1260
2018-08-23T14:06:13.978Z,1275
2018-08-23T14:07:14.759Z,1290
2018-08-23T14:08:15.473Z,1300
2018-08-23T14:09:16.213Z,1375
2018-08-23T14:10:16.955Z,1415
2018-08-23T14:11:17.758Z,1330
2018-08-23T14:12:18.436Z,1130